sensor_id;sensor_type;location;lat;lon;timestamp;P1;durP1;ratioP1;P2;durP2;ratioP2
41253;SDS011;26987;59.928;30.306;2024-03-29T00:02:12;6.55;;;2.17;;
41253;SDS011;26987;59.928;30.306;2024-03-29T00:04:38;7.85;;;1.83;;
41253;SDS011;26987;59.928;30.306;2024-03-29T00:07:05;8.15;;;1.90;;
41253;SDS011;26987;59.928;30.306;2024-03-29T00:09:32;6.60;;;1.92;;
41253;SDS011;26987;59.928;30.306;2024-03-29T00:11:59;4.50;;;1.90;;
41253;SDS011;26987;59.928;30.306;2024-03-29T00:14:26;4.10;;;2.05;;
41253;SDS011;26987;59.928;30.306;2024-03-29T00:16:54;5.30;;;2.35;;
41253;SDS011;26987;59.928;30.306;2024-03-29T00:19:21;5.35;;;2.00;;
41253;SDS011;26987;59.928;30.306;2024-03-29T00:21:48;5.15;;;1.95;;
41253;SDS011;26987;59.928;30.306;2024-03-29T00:24:15;6.00;;;2.30;;
41253;SDS011;26987;59.928;30.306;2024-03-29T00:26:41;8.25;;;2.55;;
41253;SDS011;26987;59.928;30.306;2024-03-29T00:29:08;4.50;;;2.25;;
41253;SDS011;26987;59.928;30.306;2024-03-29T00:31:35;9.27;;;2.38;;
41253;SDS011;26987;59.928;30.306;2024-03-29T00:34:03;6.78;;;2.85;;
41253;SDS011;26987;59.928;30.306;2024-03-29T00:36:30;6.15;;;2.15;;
41253;SDS011;26987;59.928;30.306;2024-03-29T00:38:57;6.40;;;2.63;;
41253;SDS011;26987;59.928;30.306;2024-03-29T00:41:24;6.32;;;2.58;;
41253;SDS011;26987;59.928;30.306;2024-03-29T00:43:51;11.82;;;2.97;;
41253;SDS011;26987;59.928;30.306;2024-03-29T00:46:17;8.68;;;3.20;;
41253;SDS011;26987;59.928;30.306;2024-03-29T00:48:44;19.70;;;2.95;;
41253;SDS011;26987;59.928;30.306;2024-03-29T00:51:13;9.93;;;3.47;;
41253;SDS011;26987;59.928;30.306;2024-03-29T00:53:39;6.88;;;2.67;;
41253;SDS011;26987;59.928;30.306;2024-03-29T00:56:06;10.52;;;3.47;;
41253;SDS011;26987;59.928;30.306;2024-03-29T00:58:33;13.57;;;3.15;;
41253;SDS011;26987;59.928;30.306;2024-03-29T01:01:00;9.02;;;3.10;;
41253;SDS011;26987;59.928;30.306;2024-03-29T01:03:27;11.40;;;3.60;;
41253;SDS011;26987;59.928;30.306;2024-03-29T01:05:53;7.78;;;3.45;;
41253;SDS011;26987;59.928;30.306;2024-03-29T01:08:22;20.25;;;4.00;;
41253;SDS011;26987;59.928;30.306;2024-03-29T01:10:49;11.68;;;3.50;;
41253;SDS011;26987;59.928;30.306;2024-03-29T01:13:15;9.93;;;3.15;;
41253;SDS011;26987;59.928;30.306;2024-03-29T01:15:42;7.80;;;2.80;;
41253;SDS011;26987;59.928;30.306;2024-03-29T01:18:09;9.93;;;3.00;;
41253;SDS011;26987;59.928;30.306;2024-03-29T01:20:36;13.15;;;3.63;;
41253;SDS011;26987;59.928;30.306;2024-03-29T01:23:04;11.90;;;3.00;;
41253;SDS011;26987;59.928;30.306;2024-03-29T01:25:36;10.43;;;3.15;;
41253;SDS011;26987;59.928;30.306;2024-03-29T01:28:03;7.60;;;2.53;;
41253;SDS011;26987;59.928;30.306;2024-03-29T01:30:30;7.43;;;3.15;;
41253;SDS011;26987;59.928;30.306;2024-03-29T01:32:57;7.65;;;2.80;;
41253;SDS011;26987;59.928;30.306;2024-03-29T01:35:24;11.07;;;4.10;;
41253;SDS011;26987;59.928;30.306;2024-03-29T01:37:51;11.25;;;2.63;;
41253;SDS011;26987;59.928;30.306;2024-03-29T01:40:18;8.20;;;3.30;;
41253;SDS011;26987;59.928;30.306;2024-03-29T01:42:46;8.10;;;3.75;;
41253;SDS011;26987;59.928;30.306;2024-03-29T01:45:13;8.73;;;3.65;;
41253;SDS011;26987;59.928;30.306;2024-03-29T01:47:41;13.05;;;3.20;;
41253;SDS011;26987;59.928;30.306;2024-03-29T01:50:09;9.13;;;3.58;;
41253;SDS011;26987;59.928;30.306;2024-03-29T01:52:37;8.70;;;3.45;;
41253;SDS011;26987;59.928;30.306;2024-03-29T01:55:06;8.73;;;3.17;;
41253;SDS011;26987;59.928;30.306;2024-03-29T01:57:34;10.57;;;4.03;;
41253;SDS011;26987;59.928;30.306;2024-03-29T02:00:14;13.50;;;4.32;;
41253;SDS011;26987;59.928;30.306;2024-03-29T02:02:42;12.32;;;4.35;;
41253;SDS011;26987;59.928;30.306;2024-03-29T02:05:10;6.53;;;3.80;;
41253;SDS011;26987;59.928;30.306;2024-03-29T02:07:38;8.05;;;3.85;;
41253;SDS011;26987;59.928;30.306;2024-03-29T02:10:06;10.38;;;4.10;;
41253;SDS011;26987;59.928;30.306;2024-03-29T02:12:38;11.68;;;3.67;;
41253;SDS011;26987;59.928;30.306;2024-03-29T02:15:08;13.35;;;4.38;;
41253;SDS011;26987;59.928;30.306;2024-03-29T02:17:41;10.10;;;3.75;;
41253;SDS011;26987;59.928;30.306;2024-03-29T02:20:10;11.93;;;4.18;;
41253;SDS011;26987;59.928;30.306;2024-03-29T02:22:41;13.90;;;4.07;;
41253;SDS011;26987;59.928;30.306;2024-03-29T02:25:15;12.75;;;4.45;;
41253;SDS011;26987;59.928;30.306;2024-03-29T02:27:43;18.98;;;4.50;;
41253;SDS011;26987;59.928;30.306;2024-03-29T02:30:13;12.80;;;4.18;;
41253;SDS011;26987;59.928;30.306;2024-03-29T02:32:41;29.50;;;4.28;;
41253;SDS011;26987;59.928;30.306;2024-03-29T02:35:09;19.35;;;4.97;;
41253;SDS011;26987;59.928;30.306;2024-03-29T02:37:37;13.90;;;3.97;;
41253;SDS011;26987;59.928;30.306;2024-03-29T02:40:06;9.57;;;3.90;;
41253;SDS011;26987;59.928;30.306;2024-03-29T02:42:36;9.90;;;3.50;;
41253;SDS011;26987;59.928;30.306;2024-03-29T02:45:05;10.85;;;3.67;;
41253;SDS011;26987;59.928;30.306;2024-03-29T02:47:33;16.52;;;3.92;;
41253;SDS011;26987;59.928;30.306;2024-03-29T02:50:01;12.15;;;3.08;;
41253;SDS011;26987;59.928;30.306;2024-03-29T02:52:29;7.60;;;3.42;;
41253;SDS011;26987;59.928;30.306;2024-03-29T02:54:57;10.85;;;3.35;;
41253;SDS011;26987;59.928;30.306;2024-03-29T02:57:23;6.28;;;3.08;;
41253;SDS011;26987;59.928;30.306;2024-03-29T02:59:53;8.07;;;3.15;;
41253;SDS011;26987;59.928;30.306;2024-03-29T03:02:19;7.97;;;3.85;;
41253;SDS011;26987;59.928;30.306;2024-03-29T03:04:47;12.70;;;3.78;;
41253;SDS011;26987;59.928;30.306;2024-03-29T03:07:14;11.43;;;3.58;;
41253;SDS011;26987;59.928;30.306;2024-03-29T03:10:00;9.15;;;3.58;;
41253;SDS011;26987;59.928;30.306;2024-03-29T03:12:45;10.77;;;3.08;;
41253;SDS011;26987;59.928;30.306;2024-03-29T03:15:14;7.82;;;3.35;;
41253;SDS011;26987;59.928;30.306;2024-03-29T03:17:42;8.10;;;3.17;;
41253;SDS011;26987;59.928;30.306;2024-03-29T03:20:09;6.80;;;2.83;;
41253;SDS011;26987;59.928;30.306;2024-03-29T03:22:39;7.20;;;3.35;;
41253;SDS011;26987;59.928;30.306;2024-03-29T03:25:07;10.73;;;3.42;;
41253;SDS011;26987;59.928;30.306;2024-03-29T03:27:34;12.25;;;3.53;;
41253;SDS011;26987;59.928;30.306;2024-03-29T03:30:02;5.65;;;2.75;;
41253;SDS011;26987;59.928;30.306;2024-03-29T03:32:32;11.35;;;3.72;;
41253;SDS011;26987;59.928;30.306;2024-03-29T03:35:00;9.18;;;3.63;;
41253;SDS011;26987;59.928;30.306;2024-03-29T03:37:26;8.13;;;3.35;;
41253;SDS011;26987;59.928;30.306;2024-03-29T03:39:54;13.10;;;4.18;;
41253;SDS011;26987;59.928;30.306;2024-03-29T03:42:21;9.25;;;2.90;;
41253;SDS011;26987;59.928;30.306;2024-03-29T03:44:49;10.52;;;3.90;;
41253;SDS011;26987;59.928;30.306;2024-03-29T03:47:16;11.30;;;4.43;;
41253;SDS011;26987;59.928;30.306;2024-03-29T03:49:45;16.80;;;3.78;;
41253;SDS011;26987;59.928;30.306;2024-03-29T03:52:12;7.35;;;2.92;;
41253;SDS011;26987;59.928;30.306;2024-03-29T03:54:40;9.13;;;3.17;;
41253;SDS011;26987;59.928;30.306;2024-03-29T03:57:07;9.10;;;3.42;;
41253;SDS011;26987;59.928;30.306;2024-03-29T03:59:35;7.28;;;3.38;;
41253;SDS011;26987;59.928;30.306;2024-03-29T04:02:02;6.50;;;3.13;;
41253;SDS011;26987;59.928;30.306;2024-03-29T04:04:30;14.50;;;3.50;;
41253;SDS011;26987;59.928;30.306;2024-03-29T04:06:59;19.02;;;4.22;;
41253;SDS011;26987;59.928;30.306;2024-03-29T04:09:27;13.63;;;3.40;;
41253;SDS011;26987;59.928;30.306;2024-03-29T04:11:53;20.42;;;3.95;;
41253;SDS011;26987;59.928;30.306;2024-03-29T04:14:21;15.68;;;4.53;;
41253;SDS011;26987;59.928;30.306;2024-03-29T04:16:48;10.68;;;3.63;;
41253;SDS011;26987;59.928;30.306;2024-03-29T04:19:16;12.98;;;3.67;;
41253;SDS011;26987;59.928;30.306;2024-03-29T04:21:43;12.35;;;4.00;;
41253;SDS011;26987;59.928;30.306;2024-03-29T04:24:12;14.65;;;3.40;;
41253;SDS011;26987;59.928;30.306;2024-03-29T04:26:39;13.30;;;3.28;;
41253;SDS011;26987;59.928;30.306;2024-03-29T04:29:09;11.98;;;3.58;;
41253;SDS011;26987;59.928;30.306;2024-03-29T04:31:35;21.38;;;4.10;;
41253;SDS011;26987;59.928;30.306;2024-03-29T04:34:03;16.13;;;3.97;;
41253;SDS011;26987;59.928;30.306;2024-03-29T04:36:30;10.10;;;3.30;;
41253;SDS011;26987;59.928;30.306;2024-03-29T04:38:58;11.77;;;3.95;;
41253;SDS011;26987;59.928;30.306;2024-03-29T04:41:27;10.95;;;3.35;;
41253;SDS011;26987;59.928;30.306;2024-03-29T04:44:00;20.73;;;3.97;;
41253;SDS011;26987;59.928;30.306;2024-03-29T04:46:29;20.35;;;4.63;;
41253;SDS011;26987;59.928;30.306;2024-03-29T04:48:57;15.38;;;3.80;;
41253;SDS011;26987;59.928;30.306;2024-03-29T04:51:25;13.55;;;3.80;;
41253;SDS011;26987;59.928;30.306;2024-03-29T04:53:53;21.13;;;5.07;;
41253;SDS011;26987;59.928;30.306;2024-03-29T04:56:21;16.15;;;3.63;;
41253;SDS011;26987;59.928;30.306;2024-03-29T04:58:50;18.58;;;4.97;;
41253;SDS011;26987;59.928;30.306;2024-03-29T05:01:18;14.23;;;4.75;;
41253;SDS011;26987;59.928;30.306;2024-03-29T05:03:46;11.57;;;4.20;;
41253;SDS011;26987;59.928;30.306;2024-03-29T05:06:14;18.85;;;5.10;;
41253;SDS011;26987;59.928;30.306;2024-03-29T05:08:42;20.77;;;5.43;;
41253;SDS011;26987;59.928;30.306;2024-03-29T05:11:10;20.70;;;5.65;;
41253;SDS011;26987;59.928;30.306;2024-03-29T05:13:40;17.33;;;4.78;;
41253;SDS011;26987;59.928;30.306;2024-03-29T05:16:09;15.50;;;4.45;;
41253;SDS011;26987;59.928;30.306;2024-03-29T05:18:37;18.60;;;4.43;;
41253;SDS011;26987;59.928;30.306;2024-03-29T05:21:06;17.70;;;4.78;;
41253;SDS011;26987;59.928;30.306;2024-03-29T05:23:35;19.00;;;5.65;;
41253;SDS011;26987;59.928;30.306;2024-03-29T05:26:03;23.67;;;5.15;;
41253;SDS011;26987;59.928;30.306;2024-03-29T05:28:31;21.23;;;5.10;;
41253;SDS011;26987;59.928;30.306;2024-03-29T05:31:08;23.58;;;5.10;;
41253;SDS011;26987;59.928;30.306;2024-03-29T05:33:41;17.70;;;4.85;;
41253;SDS011;26987;59.928;30.306;2024-03-29T05:36:09;15.73;;;4.88;;
41253;SDS011;26987;59.928;30.306;2024-03-29T05:38:39;15.48;;;4.63;;
41253;SDS011;26987;59.928;30.306;2024-03-29T05:41:07;15.95;;;5.43;;
41253;SDS011;26987;59.928;30.306;2024-03-29T05:43:35;18.40;;;5.30;;
41253;SDS011;26987;59.928;30.306;2024-03-29T05:46:03;18.75;;;5.45;;
41253;SDS011;26987;59.928;30.306;2024-03-29T05:48:32;12.20;;;5.10;;
41253;SDS011;26987;59.928;30.306;2024-03-29T05:51:01;15.48;;;4.95;;
41253;SDS011;26987;59.928;30.306;2024-03-29T05:53:30;19.42;;;4.85;;
41253;SDS011;26987;59.928;30.306;2024-03-29T05:55:58;16.67;;;4.30;;
41253;SDS011;26987;59.928;30.306;2024-03-29T05:58:26;14.32;;;5.05;;
41253;SDS011;26987;59.928;30.306;2024-03-29T06:00:54;20.30;;;5.18;;
41253;SDS011;26987;59.928;30.306;2024-03-29T06:03:22;15.63;;;4.60;;
41253;SDS011;26987;59.928;30.306;2024-03-29T06:05:51;14.63;;;4.20;;
41253;SDS011;26987;59.928;30.306;2024-03-29T06:08:19;14.23;;;4.85;;
41253;SDS011;26987;59.928;30.306;2024-03-29T06:10:49;15.05;;;5.22;;
41253;SDS011;26987;59.928;30.306;2024-03-29T06:13:18;14.50;;;4.88;;
41253;SDS011;26987;59.928;30.306;2024-03-29T06:16:15;18.88;;;5.20;;
41253;SDS011;26987;59.928;30.306;2024-03-29T06:19:00;13.30;;;5.35;;
41253;SDS011;26987;59.928;30.306;2024-03-29T06:21:31;15.70;;;5.32;;
41253;SDS011;26987;59.928;30.306;2024-03-29T06:24:04;19.55;;;5.80;;
41253;SDS011;26987;59.928;30.306;2024-03-29T06:26:34;16.17;;;4.80;;
41253;SDS011;26987;59.928;30.306;2024-03-29T06:29:02;25.50;;;6.47;;
41253;SDS011;26987;59.928;30.306;2024-03-29T06:31:30;11.80;;;5.03;;
41253;SDS011;26987;59.928;30.306;2024-03-29T06:33:58;17.15;;;5.82;;
41253;SDS011;26987;59.928;30.306;2024-03-29T06:36:26;25.48;;;5.40;;
41253;SDS011;26987;59.928;30.306;2024-03-29T06:38:57;13.43;;;5.22;;
41253;SDS011;26987;59.928;30.306;2024-03-29T06:41:25;20.90;;;4.85;;
41253;SDS011;26987;59.928;30.306;2024-03-29T06:43:53;24.77;;;5.35;;
41253;SDS011;26987;59.928;30.306;2024-03-29T06:46:21;17.42;;;4.40;;
41253;SDS011;26987;59.928;30.306;2024-03-29T06:48:51;20.02;;;5.75;;
41253;SDS011;26987;59.928;30.306;2024-03-29T06:51:19;17.13;;;5.05;;
41253;SDS011;26987;59.928;30.306;2024-03-29T06:53:47;10.82;;;4.03;;
41253;SDS011;26987;59.928;30.306;2024-03-29T06:56:16;16.45;;;4.63;;
41253;SDS011;26987;59.928;30.306;2024-03-29T06:58:44;21.27;;;4.90;;
41253;SDS011;26987;59.928;30.306;2024-03-29T07:01:13;8.50;;;4.03;;
41253;SDS011;26987;59.928;30.306;2024-03-29T07:03:41;12.35;;;4.28;;
41253;SDS011;26987;59.928;30.306;2024-03-29T07:06:09;13.95;;;4.68;;
41253;SDS011;26987;59.928;30.306;2024-03-29T07:08:37;12.90;;;4.88;;
41253;SDS011;26987;59.928;30.306;2024-03-29T07:11:05;20.23;;;5.10;;
41253;SDS011;26987;59.928;30.306;2024-03-29T07:13:34;18.17;;;5.40;;
41253;SDS011;26987;59.928;30.306;2024-03-29T07:16:02;14.63;;;4.60;;
41253;SDS011;26987;59.928;30.306;2024-03-29T07:18:30;12.77;;;4.95;;
41253;SDS011;26987;59.928;30.306;2024-03-29T07:20:58;12.18;;;5.55;;
41253;SDS011;26987;59.928;30.306;2024-03-29T07:23:26;11.88;;;4.32;;
41253;SDS011;26987;59.928;30.306;2024-03-29T07:25:57;12.77;;;4.50;;
41253;SDS011;26987;59.928;30.306;2024-03-29T07:28:26;16.23;;;5.75;;
41253;SDS011;26987;59.928;30.306;2024-03-29T07:30:55;15.88;;;4.97;;
41253;SDS011;26987;59.928;30.306;2024-03-29T07:33:24;13.98;;;5.10;;
41253;SDS011;26987;59.928;30.306;2024-03-29T07:35:53;15.10;;;4.85;;
41253;SDS011;26987;59.928;30.306;2024-03-29T07:38:21;9.32;;;3.97;;
41253;SDS011;26987;59.928;30.306;2024-03-29T07:40:49;9.60;;;5.13;;
41253;SDS011;26987;59.928;30.306;2024-03-29T07:43:17;17.38;;;5.30;;
41253;SDS011;26987;59.928;30.306;2024-03-29T07:45:46;14.30;;;5.72;;
41253;SDS011;26987;59.928;30.306;2024-03-29T07:48:16;14.10;;;4.82;;
41253;SDS011;26987;59.928;30.306;2024-03-29T07:50:44;10.55;;;5.10;;
41253;SDS011;26987;59.928;30.306;2024-03-29T07:53:13;9.85;;;4.10;;
41253;SDS011;26987;59.928;30.306;2024-03-29T07:55:41;13.38;;;5.97;;
41253;SDS011;26987;59.928;30.306;2024-03-29T07:58:09;10.90;;;4.90;;
41253;SDS011;26987;59.928;30.306;2024-03-29T08:00:39;17.65;;;5.03;;
41253;SDS011;26987;59.928;30.306;2024-03-29T08:03:08;13.43;;;4.63;;
41253;SDS011;26987;59.928;30.306;2024-03-29T08:05:37;11.95;;;4.45;;
41253;SDS011;26987;59.928;30.306;2024-03-29T08:08:06;16.25;;;4.30;;
41253;SDS011;26987;59.928;30.306;2024-03-29T08:10:34;9.90;;;4.80;;
41253;SDS011;26987;59.928;30.306;2024-03-29T08:13:02;21.77;;;4.80;;
41253;SDS011;26987;59.928;30.306;2024-03-29T08:15:32;15.73;;;4.68;;
41253;SDS011;26987;59.928;30.306;2024-03-29T08:17:59;12.07;;;4.95;;
41253;SDS011;26987;59.928;30.306;2024-03-29T08:20:27;19.30;;;5.47;;
41253;SDS011;26987;59.928;30.306;2024-03-29T08:22:59;25.23;;;5.00;;
41253;SDS011;26987;59.928;30.306;2024-03-29T08:25:27;12.95;;;5.05;;
41253;SDS011;26987;59.928;30.306;2024-03-29T08:27:55;18.50;;;5.20;;
41253;SDS011;26987;59.928;30.306;2024-03-29T08:30:24;12.85;;;5.60;;
41253;SDS011;26987;59.928;30.306;2024-03-29T08:32:54;14.13;;;5.38;;
41253;SDS011;26987;59.928;30.306;2024-03-29T08:35:23;14.80;;;5.40;;
41253;SDS011;26987;59.928;30.306;2024-03-29T08:37:51;20.13;;;4.90;;
41253;SDS011;26987;59.928;30.306;2024-03-29T08:40:20;22.40;;;5.72;;
41253;SDS011;26987;59.928;30.306;2024-03-29T08:42:49;11.18;;;5.13;;
41253;SDS011;26987;59.928;30.306;2024-03-29T08:45:17;11.07;;;5.40;;
41253;SDS011;26987;59.928;30.306;2024-03-29T08:47:45;12.45;;;4.70;;
41253;SDS011;26987;59.928;30.306;2024-03-29T08:50:13;18.33;;;5.88;;
41253;SDS011;26987;59.928;30.306;2024-03-29T08:52:41;16.60;;;5.10;;
41253;SDS011;26987;59.928;30.306;2024-03-29T08:55:10;12.25;;;6.43;;
41253;SDS011;26987;59.928;30.306;2024-03-29T08:57:39;13.93;;;5.97;;
41253;SDS011;26987;59.928;30.306;2024-03-29T09:00:08;19.42;;;5.60;;
41253;SDS011;26987;59.928;30.306;2024-03-29T09:02:37;19.50;;;5.32;;
41253;SDS011;26987;59.928;30.306;2024-03-29T09:05:05;15.60;;;5.53;;
41253;SDS011;26987;59.928;30.306;2024-03-29T09:07:33;12.57;;;5.43;;
41253;SDS011;26987;59.928;30.306;2024-03-29T09:10:03;22.45;;;5.18;;
41253;SDS011;26987;59.928;30.306;2024-03-29T09:12:31;15.95;;;5.55;;
41253;SDS011;26987;59.928;30.306;2024-03-29T09:15:02;14.48;;;6.10;;
41253;SDS011;26987;59.928;30.306;2024-03-29T09:17:34;16.67;;;5.57;;
41253;SDS011;26987;59.928;30.306;2024-03-29T09:20:02;13.05;;;5.43;;
41253;SDS011;26987;59.928;30.306;2024-03-29T09:22:30;23.05;;;5.72;;
41253;SDS011;26987;59.928;30.306;2024-03-29T09:24:58;12.38;;;5.93;;
41253;SDS011;26987;59.928;30.306;2024-03-29T09:27:26;13.93;;;5.65;;
41253;SDS011;26987;59.928;30.306;2024-03-29T09:29:55;15.05;;;6.53;;
41253;SDS011;26987;59.928;30.306;2024-03-29T09:32:24;13.23;;;5.68;;
41253;SDS011;26987;59.928;30.306;2024-03-29T09:34:52;16.08;;;6.43;;
41253;SDS011;26987;59.928;30.306;2024-03-29T09:37:20;12.05;;;6.32;;
41253;SDS011;26987;59.928;30.306;2024-03-29T09:39:49;20.65;;;7.75;;
41253;SDS011;26987;59.928;30.306;2024-03-29T09:42:17;26.23;;;6.32;;
41253;SDS011;26987;59.928;30.306;2024-03-29T09:44:50;14.70;;;5.85;;
41253;SDS011;26987;59.928;30.306;2024-03-29T09:47:18;18.35;;;7.47;;
41253;SDS011;26987;59.928;30.306;2024-03-29T09:49:49;26.80;;;6.90;;
41253;SDS011;26987;59.928;30.306;2024-03-29T09:52:18;11.80;;;6.03;;
41253;SDS011;26987;59.928;30.306;2024-03-29T09:54:47;15.20;;;6.35;;
41253;SDS011;26987;59.928;30.306;2024-03-29T09:57:15;18.95;;;6.35;;
41253;SDS011;26987;59.928;30.306;2024-03-29T09:59:44;19.67;;;6.30;;
41253;SDS011;26987;59.928;30.306;2024-03-29T10:02:14;21.27;;;6.72;;
41253;SDS011;26987;59.928;30.306;2024-03-29T10:04:44;22.88;;;6.20;;
41253;SDS011;26987;59.928;30.306;2024-03-29T10:07:18;17.20;;;6.18;;
41253;SDS011;26987;59.928;30.306;2024-03-29T10:09:47;20.20;;;6.90;;
41253;SDS011;26987;59.928;30.306;2024-03-29T10:12:16;27.85;;;7.53;;
41253;SDS011;26987;59.928;30.306;2024-03-29T10:14:44;23.77;;;7.53;;
41253;SDS011;26987;59.928;30.306;2024-03-29T10:17:15;15.13;;;7.13;;
41253;SDS011;26987;59.928;30.306;2024-03-29T10:19:44;29.15;;;7.45;;
41253;SDS011;26987;59.928;30.306;2024-03-29T10:22:12;17.75;;;6.85;;
41253;SDS011;26987;59.928;30.306;2024-03-29T10:24:42;18.83;;;6.57;;
41253;SDS011;26987;59.928;30.306;2024-03-29T10:27:09;18.85;;;5.82;;
41253;SDS011;26987;59.928;30.306;2024-03-29T10:29:37;16.90;;;7.03;;
41253;SDS011;26987;59.928;30.306;2024-03-29T10:32:07;19.30;;;6.03;;
41253;SDS011;26987;59.928;30.306;2024-03-29T10:34:35;15.90;;;6.65;;
41253;SDS011;26987;59.928;30.306;2024-03-29T10:37:03;12.93;;;6.65;;
41253;SDS011;26987;59.928;30.306;2024-03-29T10:39:31;16.60;;;6.32;;
41253;SDS011;26987;59.928;30.306;2024-03-29T10:42:01;15.18;;;6.05;;
41253;SDS011;26987;59.928;30.306;2024-03-29T10:44:31;12.63;;;5.72;;
41253;SDS011;26987;59.928;30.306;2024-03-29T10:47:02;17.75;;;6.78;;
41253;SDS011;26987;59.928;30.306;2024-03-29T10:49:31;16.40;;;7.47;;
41253;SDS011;26987;59.928;30.306;2024-03-29T10:52:01;17.65;;;7.03;;
41253;SDS011;26987;59.928;30.306;2024-03-29T10:54:31;20.17;;;6.40;;
41253;SDS011;26987;59.928;30.306;2024-03-29T10:57:05;10.90;;;6.10;;
41253;SDS011;26987;59.928;30.306;2024-03-29T10:59:44;14.15;;;6.70;;
41253;SDS011;26987;59.928;30.306;2024-03-29T11:02:24;19.08;;;6.93;;
41253;SDS011;26987;59.928;30.306;2024-03-29T11:04:59;18.75;;;6.78;;
41253;SDS011;26987;59.928;30.306;2024-03-29T11:07:32;15.82;;;6.60;;
41253;SDS011;26987;59.928;30.306;2024-03-29T11:10:05;17.33;;;7.28;;
41253;SDS011;26987;59.928;30.306;2024-03-29T11:12:35;12.40;;;6.80;;
41253;SDS011;26987;59.928;30.306;2024-03-29T11:15:14;25.10;;;6.57;;
41253;SDS011;26987;59.928;30.306;2024-03-29T11:17:49;14.48;;;6.22;;
41253;SDS011;26987;59.928;30.306;2024-03-29T11:20:17;23.08;;;6.40;;
41253;SDS011;26987;59.928;30.306;2024-03-29T11:22:50;18.20;;;6.95;;
41253;SDS011;26987;59.928;30.306;2024-03-29T11:25:18;17.98;;;6.40;;
41253;SDS011;26987;59.928;30.306;2024-03-29T11:27:48;13.65;;;5.53;;
41253;SDS011;26987;59.928;30.306;2024-03-29T11:30:16;14.88;;;6.28;;
41253;SDS011;26987;59.928;30.306;2024-03-29T11:32:45;18.95;;;6.53;;
41253;SDS011;26987;59.928;30.306;2024-03-29T11:35:16;15.75;;;6.68;;
41253;SDS011;26987;59.928;30.306;2024-03-29T11:37:46;26.65;;;6.68;;
41253;SDS011;26987;59.928;30.306;2024-03-29T11:40:23;18.13;;;6.63;;
41253;SDS011;26987;59.928;30.306;2024-03-29T11:42:58;22.65;;;7.00;;
41253;SDS011;26987;59.928;30.306;2024-03-29T11:45:26;23.08;;;6.32;;
41253;SDS011;26987;59.928;30.306;2024-03-29T11:47:56;26.63;;;6.25;;
41253;SDS011;26987;59.928;30.306;2024-03-29T11:50:28;19.42;;;6.63;;
41253;SDS011;26987;59.928;30.306;2024-03-29T11:52:56;16.33;;;6.15;;
41253;SDS011;26987;59.928;30.306;2024-03-29T11:55:24;18.42;;;6.20;;
41253;SDS011;26987;59.928;30.306;2024-03-29T11:57:53;16.15;;;6.38;;
41253;SDS011;26987;59.928;30.306;2024-03-29T12:00:22;12.88;;;6.15;;
41253;SDS011;26987;59.928;30.306;2024-03-29T12:02:55;12.75;;;5.70;;
41253;SDS011;26987;59.928;30.306;2024-03-29T12:05:23;25.13;;;7.60;;
41253;SDS011;26987;59.928;30.306;2024-03-29T12:07:52;16.70;;;5.97;;
41253;SDS011;26987;59.928;30.306;2024-03-29T12:10:20;24.30;;;6.47;;
41253;SDS011;26987;59.928;30.306;2024-03-29T12:12:48;17.50;;;6.45;;
41253;SDS011;26987;59.928;30.306;2024-03-29T12:15:16;19.60;;;5.90;;
41253;SDS011;26987;59.928;30.306;2024-03-29T12:17:53;15.38;;;6.50;;
41253;SDS011;26987;59.928;30.306;2024-03-29T12:20:22;15.73;;;6.15;;
41253;SDS011;26987;59.928;30.306;2024-03-29T12:22:50;20.45;;;6.70;;
41253;SDS011;26987;59.928;30.306;2024-03-29T12:25:19;16.10;;;5.65;;
41253;SDS011;26987;59.928;30.306;2024-03-29T12:27:47;16.42;;;5.53;;
41253;SDS011;26987;59.928;30.306;2024-03-29T12:30:16;18.10;;;6.00;;
41253;SDS011;26987;59.928;30.306;2024-03-29T12:32:44;11.52;;;5.93;;
41253;SDS011;26987;59.928;30.306;2024-03-29T12:35:14;16.23;;;5.63;;
41253;SDS011;26987;59.928;30.306;2024-03-29T12:37:49;9.90;;;5.03;;
41253;SDS011;26987;59.928;30.306;2024-03-29T12:40:18;18.48;;;6.10;;
41253;SDS011;26987;59.928;30.306;2024-03-29T12:42:48;17.90;;;5.45;;
41253;SDS011;26987;59.928;30.306;2024-03-29T12:45:16;18.08;;;6.70;;
41253;SDS011;26987;59.928;30.306;2024-03-29T12:47:45;15.50;;;6.22;;
41253;SDS011;26987;59.928;30.306;2024-03-29T12:50:14;20.25;;;5.90;;
41253;SDS011;26987;59.928;30.306;2024-03-29T12:52:52;15.68;;;6.07;;
41253;SDS011;26987;59.928;30.306;2024-03-29T12:55:21;17.65;;;6.22;;
41253;SDS011;26987;59.928;30.306;2024-03-29T12:57:50;9.07;;;4.72;;
41253;SDS011;26987;59.928;30.306;2024-03-29T13:00:20;17.50;;;6.47;;
41253;SDS011;26987;59.928;30.306;2024-03-29T13:02:48;14.23;;;5.85;;
41253;SDS011;26987;59.928;30.306;2024-03-29T13:05:17;22.17;;;6.18;;
41253;SDS011;26987;59.928;30.306;2024-03-29T13:07:45;20.42;;;6.35;;
41253;SDS011;26987;59.928;30.306;2024-03-29T13:10:14;23.52;;;5.85;;
41253;SDS011;26987;59.928;30.306;2024-03-29T13:12:46;16.15;;;5.78;;
41253;SDS011;26987;59.928;30.306;2024-03-29T13:15:16;18.88;;;5.43;;
41253;SDS011;26987;59.928;30.306;2024-03-29T13:17:45;18.95;;;5.97;;
41253;SDS011;26987;59.928;30.306;2024-03-29T13:20:15;20.08;;;7.03;;
41253;SDS011;26987;59.928;30.306;2024-03-29T13:22:45;15.38;;;5.90;;
41253;SDS011;26987;59.928;30.306;2024-03-29T13:25:15;18.02;;;5.40;;
41253;SDS011;26987;59.928;30.306;2024-03-29T13:27:45;14.02;;;5.10;;
41253;SDS011;26987;59.928;30.306;2024-03-29T13:30:14;13.75;;;6.07;;
41253;SDS011;26987;59.928;30.306;2024-03-29T13:32:42;21.17;;;5.65;;
41253;SDS011;26987;59.928;30.306;2024-03-29T13:35:11;16.70;;;5.72;;
41253;SDS011;26987;59.928;30.306;2024-03-29T13:37:39;18.55;;;6.05;;
41253;SDS011;26987;59.928;30.306;2024-03-29T13:40:10;19.70;;;6.78;;
41253;SDS011;26987;59.928;30.306;2024-03-29T13:42:38;26.58;;;6.25;;
41253;SDS011;26987;59.928;30.306;2024-03-29T13:45:07;20.98;;;6.88;;
41253;SDS011;26987;59.928;30.306;2024-03-29T13:47:37;17.70;;;6.18;;
41253;SDS011;26987;59.928;30.306;2024-03-29T13:50:06;14.77;;;6.18;;
41253;SDS011;26987;59.928;30.306;2024-03-29T13:52:34;17.40;;;6.43;;
41253;SDS011;26987;59.928;30.306;2024-03-29T13:55:02;21.27;;;6.15;;
41253;SDS011;26987;59.928;30.306;2024-03-29T13:57:33;28.27;;;6.75;;
41253;SDS011;26987;59.928;30.306;2024-03-29T14:00:01;15.85;;;5.38;;
41253;SDS011;26987;59.928;30.306;2024-03-29T14:02:31;18.65;;;6.57;;
41253;SDS011;26987;59.928;30.306;2024-03-29T14:04:59;31.20;;;5.70;;
41253;SDS011;26987;59.928;30.306;2024-03-29T14:07:27;18.98;;;5.90;;
41253;SDS011;26987;59.928;30.306;2024-03-29T14:09:55;24.85;;;5.65;;
41253;SDS011;26987;59.928;30.306;2024-03-29T14:12:24;19.52;;;5.15;;
41253;SDS011;26987;59.928;30.306;2024-03-29T14:14:53;15.38;;;4.95;;
41253;SDS011;26987;59.928;30.306;2024-03-29T14:17:22;13.68;;;4.82;;
41253;SDS011;26987;59.928;30.306;2024-03-29T14:19:50;14.40;;;5.53;;
41253;SDS011;26987;59.928;30.306;2024-03-29T14:22:18;23.00;;;7.00;;
41253;SDS011;26987;59.928;30.306;2024-03-29T14:24:46;20.40;;;7.32;;
41253;SDS011;26987;59.928;30.306;2024-03-29T14:27:15;35.15;;;7.90;;
41253;SDS011;26987;59.928;30.306;2024-03-29T14:29:43;20.77;;;7.25;;
41253;SDS011;26987;59.928;30.306;2024-03-29T14:32:13;35.05;;;7.25;;
41253;SDS011;26987;59.928;30.306;2024-03-29T14:34:41;29.45;;;7.03;;